Time;durP1;ratioP1;P1;durP2;ratioP2;P2;SDS_P1;SDS_P2;PMS_P1;PMS_P2;Temp;Humidity;BMP_temperature;BMP_pressure;BME280_temperature;BME280_humidity;BME280_pressure;Samples;Min_cycle;Max_cycle;Signal;HPM_P1;HPM_P2
2023/08/13 00:00:45;;;;;;;11.23;4.23;;;;;;;17.96;100.00;98976.88;4898168;29;20231;-60
2023/08/13 00:03:13;;;;;;;8.27;3.47;;;;;;;17.95;100.00;98980.50;4901144;29;20601;-60
2023/08/13 00:05:40;;;;;;;9.90;3.40;;;;;;;17.94;100.00;98977.03;4899629;29;20232;-61
2023/08/13 00:08:07;;;;;;;6.07;3.47;;;;;;;17.89;100.00;98979.44;4901032;29;20220;-59
2023/08/13 00:10:33;;;;;;;7.30;3.40;;;;;;;17.88;100.00;98985.72;4900853;29;20287;-61
2023/08/13 00:13:00;;;;;;;11.87;3.93;;;;;;;17.93;100.00;98977.25;4902097;29;20235;-60
2023/08/13 00:15:26;;;;;;;8.50;3.70;;;;;;;17.97;100.00;98975.84;4900347;29;20246;-61
2023/08/13 00:17:53;;;;;;;10.70;3.40;;;;;;;17.96;100.00;98976.88;4899003;29;20227;-60
2023/08/13 00:20:21;;;;;;;6.90;3.27;;;;;;;17.90;100.00;98965.22;4906306;29;20240;-60
2023/08/13 00:22:48;;;;;;;8.57;3.60;;;;;;;17.90;100.00;98973.16;4900407;28;20233;-61
2023/08/13 00:25:15;;;;;;;8.60;3.60;;;;;;;17.89;100.00;98965.44;4903150;29;20222;-61
2023/08/13 00:27:41;;;;;;;6.97;3.23;;;;;;;17.82;100.00;98968.81;4900308;29;20561;-60
2023/08/13 00:30:09;;;;;;;8.07;3.60;;;;;;;17.78;100.00;98964.09;4901970;29;20227;-61
2023/08/13 00:32:36;;;;;;;11.93;3.80;;;;;;;17.78;100.00;98962.28;4898245;29;20312;-61
2023/08/13 00:35:03;;;;;;;8.97;3.33;;;;;;;17.75;100.00;98970.59;4916042;29;20729;-61
2023/08/13 00:37:31;;;;;;;7.13;3.70;;;;;;;17.74;100.00;98966.31;4903677;29;20292;-62
2023/08/13 00:39:57;;;;;;;5.93;3.30;;;;;;;17.74;100.00;98961.03;4905172;29;20243;-59
2023/08/13 00:42:24;;;;;;;10.07;3.33;;;;;;;17.72;100.00;98955.13;4908676;29;20241;-59
2023/08/13 00:44:50;;;;;;;10.80;3.53;;;;;;;17.68;100.00;98953.88;4897917;29;20229;-59
2023/08/13 00:47:17;;;;;;;8.73;3.67;;;;;;;17.64;100.00;98953.41;4915084;29;20229;-59
2023/08/13 00:49:44;;;;;;;12.50;3.87;;;;;;;17.64;100.00;98956.06;4897809;29;20234;-59
2023/08/13 00:52:11;;;;;;;9.97;3.70;;;;;;;17.61;100.00;98947.72;4897145;29;20248;-59
2023/08/13 00:54:39;;;;;;;5.90;3.50;;;;;;;17.60;100.00;98946.88;4895014;29;20235;-60
2023/08/13 00:57:06;;;;;;;12.13;3.60;;;;;;;17.58;100.00;98953.34;4914118;29;20232;-60
2023/08/13 00:59:34;;;;;;;10.37;3.70;;;;;;;17.56;100.00;98959.66;4901767;29;20280;-60
2023/08/13 01:02:01;;;;;;;8.00;3.70;;;;;;;17.59;100.00;98957.63;4895701;29;20232;-60
2023/08/13 01:04:27;;;;;;;14.70;3.73;;;;;;;17.55;100.00;98971.22;4914657;29;20583;-60
2023/08/13 01:07:03;;;;;;;9.33;3.53;;;;;;;17.54;100.00;98968.75;4897624;29;20236;-61
2023/08/13 01:09:40;;;;;;;10.33;3.67;;;;;;;17.52;100.00;98970.75;4901254;29;20244;-61
2023/08/13 01:12:17;;;;;;;10.80;3.30;;;;;;;17.52;100.00;98971.59;4897223;29;20245;-60
2023/08/13 01:14:49;;;;;;;9.70;3.60;;;;;;;17.55;100.00;98968.56;4899022;29;20223;-60
2023/08/13 01:17:18;;;;;;;8.07;4.03;;;;;;;17.54;100.00;98969.56;4900008;28;20230;-60
2023/08/13 01:19:45;;;;;;;9.03;3.53;;;;;;;17.55;100.00;98973.00;4900842;29;20227;-60
2023/08/13 01:22:11;;;;;;;7.63;3.43;;;;;;;17.56;100.00;98972.00;4900818;29;20258;-59
2023/08/13 01:24:39;;;;;;;9.07;3.87;;;;;;;17.61;100.00;98968.81;4910465;29;20231;-59
2023/08/13 01:27:16;;;;;;;4.70;3.57;;;;;;;17.73;100.00;98982.31;4896625;29;20225;-60
2023/08/13 01:29:48;;;;;;;6.40;3.50;;;;;;;17.79;100.00;98977.13;4898470;29;20860;-59
2023/08/13 01:32:21;;;;;;;9.07;3.67;;;;;;;17.79;100.00;98982.41;4901394;29;20320;-60
2023/08/13 01:34:52;;;;;;;9.17;3.67;;;;;;;17.82;100.00;98975.91;4895912;29;20220;-59
2023/08/13 01:37:19;;;;;;;13.97;3.90;;;;;;;17.83;100.00;98967.00;4911100;29;20233;-60
2023/08/13 01:39:48;;;;;;;7.07;3.47;;;;;;;17.84;100.00;98969.44;4912666;29;20216;-59
2023/08/13 01:42:15;;;;;;;8.43;3.60;;;;;;;17.89;100.00;98968.06;4912164;28;20240;-60
2023/08/13 01:44:41;;;;;;;4.70;3.47;;;;;;;17.94;100.00;98978.88;4911691;29;20218;-59
2023/08/13 01:47:08;;;;;;;8.63;3.70;;;;;;;18.00;100.00;98971.03;4909044;29;20888;-60
2023/08/13 01:49:35;;;;;;;5.87;3.37;;;;;;;18.00;100.00;98972.88;4910427;29;20240;-60
2023/08/13 01:52:01;;;;;;;10.80;3.73;;;;;;;18.02;100.00;98967.38;4899122;29;20236;-59
2023/08/13 01:54:28;;;;;;;9.43;3.53;;;;;;;18.04;100.00;98971.44;4914029;29;20235;-60
2023/08/13 01:56:56;;;;;;;11.43;3.73;;;;;;;18.03;100.00;98975.09;4896748;28;23909;-60
2023/08/13 01:59:24;;;;;;;9.83;3.40;;;;;;;18.09;100.00;98969.06;4897015;29;20232;-60
2023/08/13 02:01:50;;;;;;;5.13;2.77;;;;;;;18.12;100.00;98971.31;4909759;29;20221;-60
2023/08/13 02:04:17;;;;;;;7.30;3.50;;;;;;;18.18;100.00;98975.03;4916397;29;20810;-59
2023/08/13 02:06:43;;;;;;;9.23;3.20;;;;;;;18.15;100.00;98970.94;4902932;29;20228;-60
2023/08/13 02:09:11;;;;;;;14.17;3.70;;;;;;;18.21;100.00;98969.38;4916048;29;20596;-60
2023/08/13 02:11:38;;;;;;;9.97;3.90;;;;;;;18.24;100.00;98974.25;4896063;28;20802;-60
2023/08/13 02:14:06;;;;;;;7.37;3.53;;;;;;;18.28;100.00;98978.16;4899714;29;20242;-59
2023/08/13 02:16:33;;;;;;;12.17;3.83;;;;;;;18.32;100.00;98954.00;4912937;29;20998;-60
2023/08/13 02:18:59;;;;;;;8.70;3.50;;;;;;;18.32;100.00;98943.41;4908797;29;20241;-60
2023/08/13 02:21:26;;;;;;;5.43;3.33;;;;;;;18.32;100.00;98949.50;4897889;29;20237;-60
2023/08/13 02:23:53;;;;;;;6.43;3.77;;;;;;;18.35;100.00;98948.31;4909567;29;20244;-59
2023/08/13 02:26:20;;;;;;;6.03;3.80;;;;;;;18.28;100.00;98949.09;4912056;29;20244;-60
2023/08/13 02:28:46;;;;;;;4.10;3.20;;;;;;;18.24;100.00;98949.66;4894561;29;20226;-60
2023/08/13 02:31:14;;;;;;;8.37;3.40;;;;;;;18.24;100.00;98957.59;4913572;28;20696;-60
2023/08/13 02:33:41;;;;;;;6.57;3.73;;;;;;;18.26;100.00;98955.56;4913694;29;20224;-60
2023/08/13 02:36:08;;;;;;;10.13;3.57;;;;;;;18.30;100.00;98959.47;4897638;29;20237;-60
2023/08/13 02:38:36;;;;;;;12.23;3.50;;;;;;;18.31;100.00;98960.28;4904899;29;20601;-60
2023/08/13 02:41:02;;;;;;;5.63;3.50;;;;;;;18.34;100.00;98967.81;4903044;29;20237;-59
2023/08/13 02:43:34;;;;;;;9.60;3.70;;;;;;;18.27;100.00;98963.31;4911976;29;20232;-61
2023/08/13 02:46:00;;;;;;;9.87;3.30;;;;;;;18.26;100.00;98958.22;4895664;29;20614;-59
2023/08/13 02:48:30;;;;;;;11.23;3.70;;;;;;;18.25;100.00;98964.50;4901227;29;20232;-60
2023/08/13 02:50:56;;;;;;;6.50;3.40;;;;;;;18.19;100.00;98966.09;4896331;29;20245;-60
2023/08/13 02:53:23;;;;;;;9.87;3.87;;;;;;;18.20;100.00;98965.09;4913537;29;20719;-59
2023/08/13 02:55:50;;;;;;;12.13;4.13;;;;;;;18.17;100.00;98962.00;4897374;29;21024;-59
2023/08/13 02:58:16;;;;;;;11.27;3.80;;;;;;;18.12;100.00;98966.03;4897216;29;20229;-60
2023/08/13 03:00:43;;;;;;;5.90;3.70;;;;;;;18.09;100.00;98966.41;4892501;28;20314;-59
2023/08/13 03:03:09;;;;;;;7.20;3.30;;;;;;;18.08;100.00;98961.34;4896157;29;20246;-59
2023/08/13 03:05:37;;;;;;;6.60;3.20;;;;;;;18.04;100.00;98958.25;4912152;29;20253;-59
2023/08/13 03:08:04;;;;;;;9.07;3.50;;;;;;;18.07;100.00;98954.41;4895516;29;20241;-60
2023/08/13 03:10:31;;;;;;;9.60;3.40;;;;;;;18.05;100.00;98953.78;4913452;29;20235;-60
2023/08/13 03:12:58;;;;;;;10.93;4.17;;;;;;;18.04;100.00;98954.81;4907175;29;20342;-60
2023/08/13 03:15:25;;;;;;;10.63;3.80;;;;;;;18.08;100.00;98956.06;4896189;29;20332;-60
2023/08/13 03:17:52;;;;;;;9.83;4.00;;;;;;;18.09;100.00;98958.50;4907260;29;20228;-59
2023/08/13 03:20:19;;;;;;;8.63;3.27;;;;;;;18.13;100.00;98951.00;4914324;29;20240;-60
2023/08/13 03:22:47;;;;;;;9.67;4.17;;;;;;;18.13;100.00;98946.53;4899673;29;20306;-60
2023/08/13 03:25:13;;;;;;;6.67;3.30;;;;;;;18.15;100.00;98954.28;4906124;29;20237;-60
2023/08/13 03:27:40;;;;;;;8.10;3.83;;;;;;;18.18;100.00;98951.25;4894027;29;20232;-60
2023/08/13 03:32:54;;;;;;;6.27;3.23;;;;;;;18.22;100.00;98955.16;5006607;23;20815;-60
2023/08/13 03:35:24;;;;;;;11.83;3.80;;;;;;;18.24;100.00;98947.00;4946614;28;20227;-60
2023/08/13 03:37:52;;;;;;;9.93;3.40;;;;;;;18.23;100.00;98948.84;4959241;28;20219;-60
2023/08/13 03:40:19;;;;;;;6.03;3.17;;;;;;;18.30;100.00;98956.81;4944890;28;20234;-60
2023/08/13 03:42:45;;;;;;;8.93;3.20;;;;;;;18.25;100.00;98948.66;4938744;29;20234;-60
2023/08/13 03:45:12;;;;;;;5.43;2.93;;;;;;;18.25;100.00;98961.84;4925421;29;20250;-60
2023/08/13 03:47:38;;;;;;;10.93;2.87;;;;;;;18.24;100.00;98957.59;4911566;29;20737;-60
2023/08/13 03:50:05;;;;;;;9.73;3.23;;;;;;;18.27;100.00;98958.03;4925023;29;20224;-60
2023/08/13 03:52:32;;;;;;;6.57;3.00;;;;;;;18.23;100.00;98950.66;4926132;29;20243;-60
2023/08/13 03:55:00;;;;;;;7.70;2.93;;;;;;;18.20;100.00;98951.88;4923760;29;20290;-60
2023/08/13 03:57:27;;;;;;;11.03;3.30;;;;;;;18.21;100.00;98957.97;4915122;29;20702;-60
2023/08/13 03:59:54;;;;;;;6.63;3.20;;;;;;;18.24;100.00;98957.59;4922660;29;20236;-60
2023/08/13 04:02:21;;;;;;;8.00;3.10;;;;;;;18.22;100.00;98967.53;4928998;29;20626;-60
2023/08/13 04:04:47;;;;;;;6.73;3.50;;;;;;;18.25;100.00;98961.84;4914958;28;20265;-60
2023/08/13 04:07:15;;;;;;;12.90;3.67;;;;;;;18.29;100.00;98949.88;4931880;29;20231;-60
2023/08/13 04:09:41;;;;;;;7.33;3.13;;;;;;;18.28;100.00;98937.69;4921319;28;20759;-60
2023/08/13 04:12:09;;;;;;;9.47;2.97;;;;;;;18.31;100.00;98944.44;4913021;29;20247;-61
2023/08/13 04:14:36;;;;;;;7.73;3.10;;;;;;;18.26;100.00;98945.81;4920925;28;20227;-60
2023/08/13 04:17:03;;;;;;;6.93;3.37;;;;;;;18.28;100.00;98937.69;4926806;29;20318;-60
2023/08/13 04:19:31;;;;;;;8.70;3.30;;;;;;;18.29;100.00;98941.97;4928790;29;20234;-60
2023/08/13 04:21:57;;;;;;;10.43;3.00;;;;;;;18.28;100.00;98946.44;4942458;28;20767;-60
2023/08/13 04:24:24;;;;;;;7.80;3.20;;;;;;;18.29;100.00;98957.81;4928330;29;20226;-60
2023/08/13 04:26:53;;;;;;;8.60;3.73;;;;;;;18.26;100.00;98950.28;4917351;29;20758;-60
2023/08/13 04:29:22;;;;;;;9.80;3.37;;;;;;;18.31;100.00;98945.22;4933833;29;20236;-60
2023/08/13 04:31:48;;;;;;;6.80;3.10;;;;;;;18.29;100.00;98947.25;4927103;29;20231;-60
2023/08/13 04:34:15;;;;;;;5.10;2.70;;;;;;;18.26;100.00;98940.53;4926820;29;20267;-60
2023/08/13 04:36:42;;;;;;;8.20;3.83;;;;;;;18.25;100.00;98946.00;4925741;29;20235;-60
2023/08/13 04:39:11;;;;;;;8.33;3.17;;;;;;;18.26;100.00;98947.63;4932404;29;20255;-60
2023/08/13 04:41:40;;;;;;;8.27;3.07;;;;;;;18.28;100.00;98950.91;4941507;29;20273;-61
2023/08/13 04:44:08;;;;;;;9.47;2.90;;;;;;;18.27;100.00;98944.81;4928246;29;20239;-60
2023/08/13 04:46:36;;;;;;;6.40;2.67;;;;;;;18.28;100.00;98946.44;4928183;29;20239;-60
2023/08/13 04:49:02;;;;;;;5.37;2.90;;;;;;;18.32;100.00;98951.34;4926218;29;20229;-60
2023/08/13 04:51:31;;;;;;;5.33;2.93;;;;;;;18.36;100.00;98949.94;4927828;29;20251;-60
2023/08/13 04:53:57;;;;;;;7.17;2.70;;;;;;;18.38;100.00;98951.38;4925033;29;20236;-61
2023/08/13 04:56:26;;;;;;;10.73;2.90;;;;;;;18.38;100.00;98954.03;4928953;28;20693;-60
2023/08/13 04:58:54;;;;;;;5.40;3.07;;;;;;;18.43;100.00;98958.75;4924545;28;20228;-60
2023/08/13 05:01:21;;;;;;;7.03;3.40;;;;;;;18.51;100.00;98958.59;4942355;29;20245;-61
2023/08/13 05:03:53;;;;;;;4.77;2.80;;;;;;;18.58;100.00;98961.25;4926619;28;20223;-60
2023/08/13 05:06:20;;;;;;;6.33;2.70;;;;;;;18.59;100.00;98966.34;4929612;29;20788;-60
2023/08/13 05:08:47;;;;;;;7.97;2.93;;;;;;;18.60;100.00;98967.16;4925065;28;20234;-60
2023/08/13 05:11:18;;;;;;;9.70;2.73;;;;;;;18.64;100.00;98965.78;4942848;29;20245;-60
2023/08/13 05:13:45;;;;;;;10.80;2.63;;;;;;;18.72;100.00;98970.06;4914652;28;20327;-60
2023/08/13 05:16:15;;;;;;;11.23;2.77;;;;;;;18.72;100.00;98972.72;4928808;28;20711;-60
2023/08/13 05:18:43;;;;;;;8.30;2.40;;;;;;;18.77;100.00;98961.56;4924612;28;20224;-60
2023/08/13 05:21:11;;;;;;;10.43;2.60;;;;;;;18.82;100.00;98959.16;4919282;29;20227;-60
2023/08/13 05:23:38;;;;;;;7.40;2.47;;;;;;;18.87;100.00;98962.03;4916906;28;20256;-60
2023/08/13 05:26:04;;;;;;;7.83;2.70;;;;;;;18.96;100.00;98966.16;4928597;29;20377;-60
2023/08/13 05:28:33;;;;;;;5.80;2.50;;;;;;;19.00;100.00;98964.75;4932266;29;20229;-61
2023/08/13 05:31:02;;;;;;;3.90;2.37;;;;;;;18.99;100.00;98965.78;4923458;29;20241;-60
2023/08/13 05:33:29;;;;;;;8.27;2.40;;;;;;;19.05;100.00;98955.41;4943264;28;20232;-61
2023/08/13 05:35:56;;;;;;;5.00;2.10;;;;;;;19.11;100.00;98959.88;4924556;28;20320;-60
2023/08/13 05:38:24;;;;;;;9.13;2.50;;;;;;;19.18;100.00;98953.63;4934942;29;20244;-60
2023/08/13 05:40:51;;;;;;;13.63;3.00;;;;;;;19.26;100.00;98955.25;4939886;29;20235;-60
2023/08/13 05:43:18;;;;;;;9.77;2.60;;;;;;;19.32;100.00;98961.59;4942738;29;20324;-60
2023/08/13 05:45:45;;;;;;;10.53;2.90;;;;;;;19.39;100.00;98958.97;4940270;29;20220;-60
2023/08/13 05:48:12;;;;;;;7.30;2.43;;;;;;;19.44;100.00;98970.59;4927105;29;20709;-60
2023/08/13 05:50:43;;;;;;;5.63;1.93;;;;;;;19.46;100.00;98970.38;4926348;28;20235;-60
2023/08/13 05:53:10;;;;;;;7.33;2.23;;;;;;;19.54;100.00;98977.34;4925957;29;20711;-60
2023/08/13 05:55:37;;;;;;;4.10;2.20;;;;;;;19.61;100.00;98978.97;4925730;28;20238;-60
2023/08/13 05:58:05;;;;;;;8.30;2.50;;;;;;;19.73;100.00;98976.53;4928312;29;20773;-60
2023/08/13 06:00:32;;;;;;;4.57;2.00;;;;;;;19.83;100.00;98970.84;4927834;29;20233;-60
2023/08/13 06:02:59;;;;;;;5.93;2.30;;;;;;;19.99;100.00;98967.00;4925321;29;20316;-60
2023/08/13 06:05:25;;;;;;;2.97;2.27;;;;;;;20.12;100.00;98978.63;4927743;29;20244;-60
2023/08/13 06:07:52;;;;;;;4.03;2.00;;;;;;;20.25;100.00;98977.78;4925305;28;20224;-61
2023/08/13 06:10:19;;;;;;;4.27;1.77;;;;;;;20.37;100.00;98978.78;4928066;29;20236;-60
2023/08/13 06:12:47;;;;;;;8.40;2.10;;;;;;;20.47;100.00;98965.94;4924017;28;20237;-61
2023/08/13 06:15:13;;;;;;;5.77;2.00;;;;;;;20.74;100.00;98973.00;4927803;29;20240;-60
2023/08/13 06:17:42;;;;;;;3.60;2.00;;;;;;;20.90;100.00;98977.06;4926790;28;20241;-60
2023/08/13 06:20:11;;;;;;;4.47;2.03;;;;;;;21.07;100.00;98985.38;4928063;29;20332;-60
2023/08/13 06:22:38;;;;;;;4.00;2.07;;;;;;;21.16;100.00;98978.00;4924167;28;20602;-60
2023/08/13 06:25:05;;;;;;;4.83;1.90;;;;;;;21.26;100.00;98980.97;4927809;29;20809;-60
2023/08/13 06:27:32;;;;;;;2.00;1.80;;;;;;;21.30;100.00;98984.84;4927920;29;20618;-61
2023/08/13 06:30:00;;;;;;;3.37;1.93;;;;;;;21.33;100.00;98983.63;4925152;29;20239;-61
2023/08/13 06:32:26;;;;;;;7.90;1.80;;;;;;;21.34;100.00;98975.44;4926946;29;20238;-60
2023/08/13 06:34:53;;;;;;;3.33;2.00;;;;;;;21.39;100.00;98966.84;4924782;29;20585;-61
2023/08/13 06:37:20;;;;;;;5.17;1.70;;;;;;;21.45;100.00;98966.00;4926713;29;20227;-61
2023/08/13 06:39:46;;;;;;;2.37;1.90;;;;;;;21.48;100.00;98975.34;4924504;29;20240;-61
2023/08/13 06:42:13;;;;;;;3.10;1.90;;;;;;;21.54;100.00;98969.19;4927728;29;20241;-61
2023/08/13 06:44:40;;;;;;;3.20;1.60;;;;;;;21.59;100.00;98973.88;4939206;29;20269;-63
2023/08/13 06:47:08;;;;;;;4.63;1.70;;;;;;;21.65;100.00;98975.72;4927518;29;20320;-62
2023/08/13 06:49:34;;;;;;;4.77;1.67;;;;;;;21.74;100.00;98976.25;4927412;29;20275;-60
2023/08/13 06:52:01;;;;;;;6.87;1.70;;;;;;;21.91;100.00;98968.53;4924858;29;20237;-60
2023/08/13 06:54:28;;;;;;;3.97;1.70;;;;;;;22.14;100.00;98973.28;4927419;29;20764;-61
2023/08/13 06:56:54;;;;;;;3.37;1.87;;;;;;;22.39;100.00;98975.06;4924022;29;20587;-61
2023/08/13 06:59:21;;;;;;;5.23;1.87;;;;;;;22.53;100.00;98981.91;4927263;28;20229;-60
2023/08/13 07:01:48;;;;;;;4.93;1.77;;;;;;;22.78;100.00;98972.28;4922141;28;20707;-61
2023/08/13 07:04:16;;;;;;;4.17;1.50;;;;;;;23.04;100.00;98980.94;4926812;29;20236;-60
2023/08/13 07:06:42;;;;;;;4.93;1.90;;;;;;;23.06;100.00;98973.56;4924322;28;20750;-60
2023/08/13 07:09:09;;;;;;;2.77;1.47;;;;;;;23.24;100.00;98978.88;4927159;29;20240;-60
2023/08/13 07:11:36;;;;;;;3.63;1.50;;;;;;;23.13;100.00;98971.63;4925380;28;20228;-60
2023/08/13 07:14:04;;;;;;;4.43;1.70;;;;;;;23.28;100.00;98969.41;4915485;29;20762;-60
2023/08/13 07:16:30;;;;;;;2.67;1.70;;;;;;;23.26;100.00;98960.03;4927193;29;20227;-60
2023/08/13 07:18:57;;;;;;;2.63;1.63;;;;;;;23.33;100.00;98968.72;4923594;29;20945;-60
2023/08/13 07:21:25;;;;;;;4.00;1.50;;;;;;;23.27;100.00;98978.44;4926626;29;20681;-61
2023/08/13 07:23:52;;;;;;;2.37;1.30;;;;;;;23.17;100.00;98974.66;4923766;29;20235;-60
2023/08/13 07:26:20;;;;;;;4.70;1.60;;;;;;;23.13;100.00;98966.28;4927213;29;20667;-60
2023/08/13 07:28:46;;;;;;;2.03;1.40;;;;;;;23.29;100.00;98973.69;4923784;29;20793;-60
2023/08/13 07:31:14;;;;;;;2.87;1.10;;;;;;;23.15;100.00;98956.22;4925314;29;20242;-60
2023/08/13 07:33:40;;;;;;;5.60;1.30;;;;;;;23.09;98.17;98965.94;4921166;29;20229;-60
2023/08/13 07:36:07;;;;;;;1.90;1.20;;;;;;;22.92;99.43;98975.56;4927905;29;20237;-60
2023/08/13 07:38:35;;;;;;;2.90;1.23;;;;;;;22.68;100.00;98972.78;4926847;29;20713;-60
2023/08/13 07:41:03;;;;;;;3.30;1.00;;;;;;;22.64;100.00;98974.25;4922435;29;20237;-60
2023/08/13 07:43:30;;;;;;;3.23;1.20;;;;;;;22.56;100.00;98980.69;4926745;29;20321;-59
2023/08/13 07:45:57;;;;;;;3.33;1.13;;;;;;;22.66;100.00;98980.16;4924261;29;20287;-60
2023/08/13 07:48:24;;;;;;;3.67;1.30;;;;;;;22.83;100.00;98985.69;4926452;29;20237;-60
2023/08/13 07:50:51;;;;;;;2.80;1.60;;;;;;;22.96;100.00;98984.75;4924364;28;20232;-60
2023/08/13 07:53:18;;;;;;;1.83;1.20;;;;;;;23.11;100.00;98992.34;4928762;29;20907;-60
2023/08/13 07:55:49;;;;;;;3.57;1.63;;;;;;;23.02;100.00;98994.50;4926831;28;20229;-59
2023/08/13 07:58:16;;;;;;;2.63;1.40;;;;;;;23.21;100.00;98992.63;4930577;29;20230;-60
2023/08/13 08:00:42;;;;;;;3.60;1.50;;;;;;;23.52;99.49;98995.31;4927810;28;20807;-60
2023/08/13 08:03:09;;;;;;;3.00;1.50;;;;;;;23.84;98.65;99001.22;4929156;29;20238;-60
2023/08/13 08:05:36;;;;;;;3.37;1.50;;;;;;;23.80;96.39;99010.69;4929232;28;20237;-60
2023/08/13 08:08:03;;;;;;;2.67;1.40;;;;;;;23.88;96.51;99005.00;4927811;29;20652;-60
2023/08/13 08:10:30;;;;;;;3.60;1.50;;;;;;;23.86;95.70;99008.97;4930086;29;20235;-61
2023/08/13 08:12:58;;;;;;;2.23;1.20;;;;;;;23.76;93.49;98998.88;4926534;29;20249;-60
2023/08/13 08:15:25;;;;;;;2.40;1.23;;;;;;;23.97;92.44;98996.69;4929712;29;20232;-60
2023/08/13 08:17:54;;;;;;;3.00;1.30;;;;;;;23.88;92.52;98988.22;4925952;29;20237;-60
2023/08/13 08:20:22;;;;;;;2.00;1.20;;;;;;;24.02;92.37;98979.00;4929990;29;20237;-60
2023/08/13 08:22:48;;;;;;;2.40;1.70;;;;;;;23.94;90.83;98981.97;4927274;29;20249;-60
2023/08/13 08:25:15;;;;;;;2.00;1.10;;;;;;;23.96;90.94;98979.88;4929740;29;20241;-60
2023/08/13 08:27:42;;;;;;;3.37;1.33;;;;;;;23.76;87.90;98982.88;4927302;29;20225;-60
2023/08/13 08:30:11;;;;;;;2.23;1.30;;;;;;;23.62;92.04;98992.91;4927425;29;20906;-60
2023/08/13 08:32:37;;;;;;;1.53;1.30;;;;;;;23.33;91.77;98979.38;4925323;29;20237;-61
2023/08/13 08:35:05;;;;;;;2.03;1.20;;;;;;;23.11;94.83;98976.34;4929661;29;20236;-60
2023/08/13 08:37:32;;;;;;;1.40;1.17;;;;;;;23.15;95.74;98972.22;4929781;29;20240;-60
2023/08/13 08:39:59;;;;;;;3.07;1.20;;;;;;;23.20;95.12;98974.22;4926806;29;20324;-59
2023/08/13 08:42:26;;;;;;;2.67;1.50;;;;;;;23.08;94.72;98972.31;4929325;29;20232;-60
2023/08/13 08:44:53;;;;;;;4.90;1.80;;;;;;;23.05;95.87;98972.75;4925903;29;20229;-62
2023/08/13 08:47:22;;;;;;;2.60;1.73;;;;;;;23.29;96.21;98965.69;4929129;29;20809;-60
2023/08/13 08:49:49;;;;;;;2.07;1.50;;;;;;;23.54;97.02;98962.06;4926802;28;20256;-60
2023/08/13 08:52:18;;;;;;;3.37;1.77;;;;;;;23.97;96.39;98970.03;4930088;29;20754;-60
2023/08/13 08:54:46;;;;;;;8.23;1.73;;;;;;;24.02;93.44;98967.50;4926453;28;20252;-60
2023/08/13 08:57:13;;;;;;;2.70;1.43;;;;;;;24.29;84.71;98965.22;4929987;29;20226;-61
2023/08/13 08:59:40;;;;;;;2.47;1.33;;;;;;;24.42;84.36;98961.47;4926676;28;20320;-60
2023/08/13 09:02:06;;;;;;;4.30;1.40;;;;;;;24.56;83.68;98958.56;4928762;29;20766;-61
2023/08/13 09:04:34;;;;;;;2.63;1.30;;;;;;;24.61;84.80;98956.78;4928262;29;20250;-61
2023/08/13 09:07:03;;;;;;;1.50;1.10;;;;;;;24.90;84.42;98959.56;4926990;29;20230;-61
2023/08/13 09:09:31;;;;;;;1.50;1.10;;;;;;;25.31;83.93;98954.16;4929412;29;20245;-60
2023/08/13 09:11:58;;;;;;;2.30;1.40;;;;;;;25.43;81.61;98951.44;4926810;29;20243;-61
2023/08/13 09:14:26;;;;;;;2.23;1.50;;;;;;;25.58;80.01;98955.44;4929231;29;20836;-61
2023/08/13 09:16:54;;;;;;;1.33;1.20;;;;;;;25.90;78.12;98949.53;4926183;29;20229;-61
2023/08/13 09:19:23;;;;;;;3.27;1.53;;;;;;;25.84;78.05;98950.50;4929010;28;20224;-59
2023/08/13 09:21:53;;;;;;;1.17;1.07;;;;;;;26.15;75.01;98946.47;4926212;29;20216;-62
2023/08/13 09:24:31;;;;;;;3.57;1.20;;;;;;;25.91;74.48;98945.81;4928246;29;20732;-62
2023/08/13 09:26:58;;;;;;;1.47;1.00;;;;;;;26.12;75.48;98938.09;4926266;29;20250;-61
2023/08/13 09:29:24;;;;;;;2.53;1.07;;;;;;;26.13;77.01;98942.41;4929445;29;20246;-61
2023/08/13 09:31:51;;;;;;;3.23;1.40;;;;;;;26.14;75.08;98942.16;4925145;29;20222;-61
2023/08/13 09:34:18;;;;;;;2.83;1.50;;;;;;;25.72;77.18;98938.03;4928656;29;20229;-60
2023/08/13 09:36:45;;;;;;;3.00;1.23;;;;;;;25.89;77.57;98942.56;4923697;29;20232;-62
2023/08/13 09:39:13;;;;;;;4.80;1.40;;;;;;;26.08;76.82;98940.44;4927871;29;20250;-62
2023/08/13 09:41:41;;;;;;;1.87;1.20;;;;;;;25.90;74.03;98944.19;4925604;29;20239;-63
2023/08/13 09:44:10;;;;;;;1.43;1.03;;;;;;;25.52;74.46;98946.53;4928028;29;20237;-62
2023/08/13 09:46:39;;;;;;;3.50;1.33;;;;;;;25.22;75.83;98952.94;4924732;29;20240;-62
2023/08/13 09:49:09;;;;;;;2.50;1.17;;;;;;;25.28;75.52;98953.84;4928360;29;20714;-61
2023/08/13 09:51:39;;;;;;;2.83;1.40;;;;;;;25.09;76.19;98958.56;4928073;29;20248;-61
2023/08/13 09:54:13;;;;;;;2.53;1.30;;;;;;;24.83;77.85;98966.09;4925674;29;20242;-61
2023/08/13 09:56:45;;;;;;;2.50;1.10;;;;;;;24.62;78.46;98974.44;4925236;29;20336;-61
2023/08/13 09:59:12;;;;;;;4.70;1.33;;;;;;;24.65;76.06;98964.34;4928103;29;20686;-60
2023/08/13 10:01:40;;;;;;;2.23;1.17;;;;;;;24.48;78.04;98957.03;4924875;28;20320;-59
2023/08/13 10:04:08;;;;;;;1.93;1.40;;;;;;;24.66;78.29;98947.28;4927559;29;20245;-59
2023/08/13 10:06:36;;;;;;;3.80;1.40;;;;;;;24.85;78.53;98945.31;4927896;28;20714;-59
2023/08/13 10:09:05;;;;;;;4.27;1.43;;;;;;;24.98;78.31;98944.22;4925502;29;20250;-60
2023/08/13 10:11:31;;;;;;;2.53;1.23;;;;;;;25.12;75.56;98950.06;4927646;29;20227;-60
2023/08/13 10:13:59;;;;;;;3.07;1.40;;;;;;;25.16;74.64;98949.38;4911950;29;20238;-60
2023/08/13 10:16:27;;;;;;;4.10;1.93;;;;;;;25.44;74.92;98946.91;4927639;29;20240;-62
2023/08/13 10:18:57;;;;;;;1.97;1.23;;;;;;;25.68;75.76;98947.59;4924558;29;20305;-61
2023/08/13 10:21:33;;;;;;;2.73;1.70;;;;;;;25.52;72.39;98951.88;4927583;29;20464;-61
2023/08/13 10:24:01;;;;;;;2.50;1.30;;;;;;;25.27;72.82;98960.25;4921515;29;20322;-61
2023/08/13 10:26:28;;;;;;;3.17;1.30;;;;;;;25.02;73.20;98951.50;4927708;29;20243;-61
2023/08/13 10:28:55;;;;;;;2.10;1.37;;;;;;;24.61;75.70;98962.13;4924853;28;20226;-63
2023/08/13 10:31:30;;;;;;;3.77;1.53;;;;;;;24.35;81.11;98966.13;4927323;29;20245;-60
2023/08/13 10:34:09;;;;;;;3.67;1.20;;;;;;;24.18;81.55;98974.03;4923405;28;20256;-61
2023/08/13 10:37:00;;;;;;;2.40;1.30;;;;;;;23.77;83.54;99002.31;4926538;29;20262;-61
2023/08/13 10:39:35;;;;;;;3.67;1.90;;;;;;;23.21;85.21;99000.59;4914555;28;20311;-62
2023/08/13 10:42:04;;;;;;;3.00;1.70;;;;;;;23.03;87.87;98985.47;4925139;29;20248;-61
2023/08/13 10:44:32;;;;;;;4.03;1.70;;;;;;;22.89;89.58;98982.16;4926042;28;20265;-61
2023/08/13 10:47:00;;;;;;;9.83;1.90;;;;;;;22.62;100.00;98986.97;4924021;29;20228;-62
2023/08/13 10:49:28;;;;;;;4.50;2.00;;;;;;;22.57;100.00;98966.34;4927110;28;20225;-62
2023/08/13 10:51:54;;;;;;;10.97;2.40;;;;;;;22.45;100.00;98968.09;4923941;29;20224;-60
2023/08/13 10:54:26;;;;;;;6.00;2.50;;;;;;;22.36;100.00;98970.19;4919710;29;20299;-61
2023/08/13 10:56:58;;;;;;;7.87;2.03;;;;;;;22.11;100.00;98957.78;4914378;29;20232;-61
2023/08/13 10:59:32;;;;;;;6.37;2.10;;;;;;;22.23;100.00;98973.81;4927037;28;20273;-62
2023/08/13 11:02:20;;;;;;;7.73;2.30;;;;;;;22.10;100.00;98958.81;4923709;29;20585;-60
2023/08/13 11:04:47;;;;;;;4.10;2.23;;;;;;;22.11;100.00;98947.94;4922551;29;20230;-61
2023/08/13 11:07:15;;;;;;;7.57;2.17;;;;;;;22.06;100.00;98939.81;4927240;29;20233;-60
2023/08/13 11:09:43;;;;;;;7.10;2.30;;;;;;;22.33;100.00;98938.72;4924497;28;20719;-61
2023/08/13 11:12:10;;;;;;;4.90;1.77;;;;;;;22.93;100.00;98937.28;4926455;29;20243;-61
2023/08/13 11:14:38;;;;;;;5.97;1.83;;;;;;;23.57;100.00;98936.81;4923937;28;20255;-61
2023/08/13 11:17:05;;;;;;;3.40;1.90;;;;;;;23.56;100.00;98936.03;4926639;29;20245;-61
2023/08/13 11:19:33;;;;;;;4.53;1.70;;;;;;;24.15;100.00;98934.47;4925544;29;20240;-61
2023/08/13 11:22:01;;;;;;;2.97;1.70;;;;;;;24.56;100.00;98945.22;4924105;29;20249;-60
2023/08/13 11:24:30;;;;;;;6.47;1.97;;;;;;;24.77;96.08;98941.13;4926418;28;20236;-61
2023/08/13 11:26:57;;;;;;;5.43;1.93;;;;;;;24.65;94.22;98933.13;4924442;29;20240;-61
2023/08/13 11:29:24;;;;;;;4.17;2.00;;;;;;;25.12;96.80;98929.53;4930732;28;20229;-61
2023/08/13 11:31:50;;;;;;;2.83;1.63;;;;;;;25.64;90.32;98925.06;4927323;29;20247;-61